Indianapolis, Indiana
Traffic Map
Current Weather Conditions
Indianapolis, Indiana
Scattered Clouds
Scattered Clouds
70°
Feels Like: 70°
Wind Chill: 70° Ceiling: Unl
Heat Index: 70° Visibility: 10mi
Dew Point: 66° Wind: 5mph
Humidity: 87% Direction: 150° (SSE)
Pressure: 29.93in Gusts: 0mph
Raw Report DataKIND 191254Z 15004KT 10SM FEW070 SCT150 21/19 A2993 RMK AO2 SLP128 T02110189
Traffic Incident Summary
Active as of:
Severity:
Category:
InformationThere was an issue retrieving the traffic information for this location. Please try a different location or try again shortly.
Advertisements